createdAt,value
2023-02-24T00:02:01.078Z,43.15
2023-02-24T00:04:40.471Z,47.25
2023-02-24T00:07:10.416Z,44.20
2023-02-24T00:09:39.005Z,41.95
2023-02-24T00:12:11.122Z,40.95
2023-02-24T00:14:41.853Z,47.83
2023-02-24T00:17:10.960Z,39.78
2023-02-24T00:19:38.429Z,37.00
2023-02-24T00:22:08.471Z,45.00
2023-02-24T00:24:36.280Z,42.80
2023-02-24T00:27:07.673Z,40.15
2023-02-24T00:29:40.112Z,40.28
2023-02-24T00:32:12.336Z,41.92
2023-02-24T00:34:39.991Z,41.08
2023-02-24T00:37:08.244Z,39.55
2023-02-24T00:39:41.972Z,48.30
2023-02-24T00:42:11.572Z,37.13
2023-02-24T00:44:45.087Z,38.45
2023-02-24T00:47:13.423Z,38.95
2023-02-24T00:49:44.214Z,34.60
2023-02-24T00:52:21.068Z,36.95
2023-02-24T00:54:49.542Z,36.75
2023-02-24T00:57:21.695Z,33.70
2023-02-24T00:59:51.651Z,28.45
2023-02-24T01:02:19.992Z,32.90
2023-02-24T01:04:47.300Z,31.35
2023-02-24T01:07:14.825Z,25.38
2023-02-24T01:09:44.101Z,29.25
2023-02-24T01:12:31.996Z,23.38
2023-02-24T01:14:59.023Z,24.38
2023-02-24T01:17:26.179Z,23.60
2023-02-24T01:19:53.129Z,33.10
2023-02-24T01:22:22.682Z,15.55
2023-02-24T01:24:49.923Z,20.10
2023-02-24T01:27:19.388Z,23.55
2023-02-24T01:29:47.970Z,18.80
2023-02-24T01:32:20.510Z,18.50
2023-02-24T01:34:51.532Z,20.58
2023-02-24T01:37:19.513Z,16.98
2023-02-24T01:39:47.878Z,23.13
2023-02-24T01:42:22.042Z,19.40
2023-02-24T01:44:52.136Z,17.88
2023-02-24T01:47:21.351Z,20.48
2023-02-24T01:49:52.920Z,24.33
2023-02-24T01:52:35.731Z,14.43
2023-02-24T01:55:23.881Z,12.88
2023-02-24T01:57:54.984Z,19.15
2023-02-24T02:00:51.344Z,20.80
2023-02-24T02:03:25.458Z,15.85
2023-02-24T02:06:01.039Z,15.18
2023-02-24T02:08:28.979Z,17.47
2023-02-24T02:11:04.948Z,24.42
2023-02-24T02:13:36.011Z,12.15
2023-02-24T02:16:42.272Z,11.05
2023-02-24T02:19:30.517Z,15.02
2023-02-24T02:22:35.723Z,20.13
2023-02-24T02:25:12.568Z,19.52
2023-02-24T02:27:59.362Z,20.38
2023-02-24T02:31:08.494Z,10.23
2023-02-24T02:34:10.175Z,25.02
2023-02-24T02:37:06.772Z,17.40
2023-02-24T02:39:49.384Z,18.90
2023-02-24T02:42:30.752Z,17.50
2023-02-24T02:45:33.501Z,13.48
2023-02-24T02:48:10.120Z,19.45
2023-02-24T02:51:06.466Z,15.25
2023-02-24T02:53:45.552Z,12.93
2023-02-24T02:56:39.194Z,24.27
2023-02-24T02:59:08.545Z,11.10
2023-02-24T03:01:43.477Z,12.05
2023-02-24T03:04:13.359Z,9.85
2023-02-24T03:06:54.036Z,13.55
2023-02-24T03:09:29.295Z,11.77
2023-02-24T03:12:02.174Z,12.77
2023-02-24T03:14:37.504Z,11.00
2023-02-24T03:17:09.995Z,12.70
2023-02-24T03:19:39.633Z,17.25
2023-02-24T03:22:13.768Z,9.65
2023-02-24T03:24:42.525Z,12.65
2023-02-24T03:27:29.184Z,15.93
2023-02-24T03:30:09.594Z,18.15
2023-02-24T03:33:09.560Z,12.95
2023-02-24T03:35:44.148Z,13.15
2023-02-24T03:38:14.109Z,8.30
2023-02-24T03:40:43.448Z,13.43
2023-02-24T03:43:25.916Z,12.20
2023-02-24T03:45:56.459Z,10.63
2023-02-24T03:48:25.312Z,14.10
2023-02-24T03:50:53.161Z,11.18
2023-02-24T03:54:20.012Z,9.35
2023-02-24T03:57:23.075Z,15.18
2023-02-24T04:00:36.962Z,12.07
2023-02-24T04:03:28.259Z,11.00
2023-02-24T04:06:23.533Z,9.65
2023-02-24T04:09:02.023Z,7.40
2023-02-24T04:11:58.968Z,10.02
2023-02-24T04:14:34.703Z,12.57
2023-02-24T04:17:21.950Z,8.93
2023-02-24T04:19:56.401Z,14.18
2023-02-24T04:22:26.871Z,8.63
2023-02-24T04:24:59.684Z,9.48
2023-02-24T04:27:28.471Z,10.88
2023-02-24T04:30:04.940Z,10.85
2023-02-24T04:32:32.894Z,6.72
2023-02-24T04:35:12.456Z,6.85
2023-02-24T04:37:44.564Z,9.00
2023-02-24T04:40:21.967Z,16.60
2023-02-24T04:42:54.166Z,9.55
2023-02-24T04:45:28.815Z,11.25
2023-02-24T04:48:01.952Z,11.65
2023-02-24T04:50:35.711Z,14.13
2023-02-24T04:53:09.933Z,8.32
2023-02-24T04:55:40.848Z,12.57
2023-02-24T04:58:11.994Z,15.43
2023-02-24T05:00:41.608Z,7.78
2023-02-24T05:03:12.224Z,15.93
2023-02-24T05:05:42.816Z,10.43
2023-02-24T05:08:11.145Z,18.15
2023-02-24T05:10:44.504Z,8.50
2023-02-24T05:13:25.807Z,11.38
2023-02-24T05:15:53.584Z,13.18
2023-02-24T05:18:20.947Z,7.68
2023-02-24T05:21:14.613Z,7.07
2023-02-24T05:23:46.878Z,13.40
2023-02-24T05:26:17.073Z,5.60
2023-02-24T05:28:54.784Z,8.07
2023-02-24T05:31:26.906Z,7.88
2023-02-24T05:33:58.617Z,8.43
2023-02-24T05:36:29.619Z,12.32
2023-02-24T05:39:07.529Z,6.03
2023-02-24T05:41:38.647Z,11.98
2023-02-24T05:44:11.146Z,5.40
2023-02-24T05:46:41.097Z,10.55
2023-02-24T05:49:15.324Z,10.60
2023-02-24T05:51:54.555Z,11.13
2023-02-24T05:54:35.623Z,7.93
2023-02-24T05:57:08.992Z,12.80
2023-02-24T05:59:36.262Z,11.00
2023-02-24T06:02:09.168Z,9.90
2023-02-24T06:04:46.299Z,8.68
2023-02-24T06:07:20.021Z,9.85
2023-02-24T06:09:50.468Z,9.60
2023-02-24T06:12:18.813Z,3.97
2023-02-24T06:14:45.761Z,4.53
2023-02-24T06:17:16.866Z,8.63
2023-02-24T06:19:45.349Z,12.25
2023-02-24T06:22:19.236Z,6.35
2023-02-24T06:24:48.656Z,12.13
2023-02-24T06:27:18.949Z,6.18
2023-02-24T06:29:51.177Z,8.45
2023-02-24T06:32:20.756Z,8.55
2023-02-24T06:34:47.874Z,4.75
2023-02-24T06:37:16.241Z,11.70
2023-02-24T06:39:43.384Z,7.93
2023-02-24T06:42:11.912Z,8.60
2023-02-24T06:44:40.829Z,6.88
2023-02-24T06:47:13.208Z,10.57
2023-02-24T06:49:42.587Z,8.77
2023-02-24T06:52:11.565Z,6.55
2023-02-24T06:54:38.651Z,13.65
2023-02-24T06:57:05.746Z,6.93
2023-02-24T06:59:32.682Z,6.35
2023-02-24T07:02:03.213Z,9.55
2023-02-24T07:04:30.809Z,5.68
2023-02-24T07:07:03.428Z,13.20
2023-02-24T07:09:31.994Z,7.80
2023-02-24T07:12:02.660Z,8.18
2023-02-24T07:14:31.371Z,8.43
2023-02-24T07:16:59.457Z,4.38
2023-02-24T07:19:32.305Z,9.98
2023-02-24T07:22:03.073Z,8.90
2023-02-24T07:24:36.468Z,6.10
2023-02-24T07:27:10.990Z,4.50
2023-02-24T07:29:38.468Z,11.52
2023-02-24T07:32:08.616Z,5.35
2023-02-24T07:34:39.809Z,5.70
2023-02-24T07:37:08.560Z,10.20
2023-02-24T07:39:39.130Z,7.70
2023-02-24T07:42:10.281Z,6.28
2023-02-24T07:44:46.442Z,10.43
2023-02-24T07:47:15.640Z,8.05
2023-02-24T07:49:43.003Z,8.52
2023-02-24T07:52:11.439Z,10.90
2023-02-24T07:54:39.306Z,7.78
2023-02-24T07:57:13.110Z,7.75
2023-02-24T07:59:40.559Z,7.53
2023-02-24T08:02:11.341Z,6.45
2023-02-24T08:04:41.301Z,5.15
2023-02-24T08:07:14.300Z,12.55
2023-02-24T08:10:07.242Z,6.07
2023-02-24T08:12:35.099Z,10.07
2023-02-24T08:15:16.996Z,6.05
2023-02-24T08:17:47.194Z,6.80
2023-02-24T08:20:14.509Z,6.25
2023-02-24T08:22:44.382Z,10.55
2023-02-24T08:25:18.514Z,6.95
2023-02-24T08:28:06.798Z,6.85
2023-02-24T08:30:46.704Z,6.93
2023-02-24T08:33:20.756Z,10.27
2023-02-24T08:36:01.430Z,13.13
2023-02-24T08:38:39.588Z,11.30
2023-02-24T08:41:18.418Z,8.98
2023-02-24T08:43:46.383Z,6.97
2023-02-24T08:46:18.386Z,12.77
2023-02-24T08:48:55.566Z,7.75
2023-02-24T08:51:34.569Z,7.65
2023-02-24T08:54:11.185Z,6.53
2023-02-24T08:59:29.069Z,7.68
2023-02-24T09:02:17.105Z,6.65
2023-02-24T09:04:53.059Z,8.55
2023-02-24T09:07:35.473Z,10.70
2023-02-24T09:10:11.450Z,7.05
2023-02-24T09:12:41.210Z,9.63
2023-02-24T09:15:11.240Z,9.32
2023-02-24T09:17:40.708Z,11.68
2023-02-24T09:20:33.023Z,6.80
2023-02-24T09:23:07.520Z,8.60
2023-02-24T09:25:49.487Z,10.18
2023-02-24T09:28:19.081Z,8.18
2023-02-24T09:30:56.550Z,7.10
2023-02-24T09:33:29.501Z,10.32
2023-02-24T09:36:12.957Z,7.60
2023-02-24T09:39:07.265Z,7.05
2023-02-24T09:41:58.977Z,6.70
2023-02-24T09:44:34.620Z,7.38
2023-02-24T09:47:30.958Z,10.88
2023-02-24T09:50:05.302Z,6.05
2023-02-24T09:52:52.159Z,4.57
2023-02-24T09:56:00.110Z,12.15
2023-02-24T09:58:49.366Z,6.45
2023-02-24T10:01:42.749Z,12.02
2023-02-24T10:04:53.922Z,8.43
2023-02-24T10:07:38.685Z,7.60
2023-02-24T10:10:29.645Z,9.63
2023-02-24T10:13:30.910Z,8.57
2023-02-24T10:16:07.026Z,7.28
2023-02-24T10:22:00.218Z,4.65
2023-02-24T10:24:48.931Z,5.93
2023-02-24T10:27:33.244Z,7.60
2023-02-24T10:30:40.659Z,6.03
2023-02-24T10:33:45.054Z,3.97
2023-02-24T10:36:25.815Z,11.55
2023-02-24T10:38:56.051Z,5.97
2023-02-24T10:41:29.283Z,4.47
2023-02-24T10:43:57.779Z,5.80
2023-02-24T10:46:42.780Z,9.82
2023-02-24T10:49:16.662Z,5.93
2023-02-24T10:51:53.059Z,7.00
2023-02-24T10:54:45.049Z,5.38
2023-02-24T10:57:36.356Z,7.05
2023-02-24T11:00:18.514Z,5.30
2023-02-24T11:03:10.340Z,5.07
2023-02-24T11:05:56.418Z,8.57
2023-02-24T11:08:41.570Z,7.87
2023-02-24T11:11:29.683Z,7.78
2023-02-24T11:14:19.261Z,10.15
2023-02-24T11:17:10.736Z,6.20
2023-02-24T11:20:01.762Z,8.55
2023-02-24T11:22:36.520Z,4.82
2023-02-24T11:25:19.203Z,6.30
2023-02-24T11:27:47.090Z,4.18
2023-02-24T11:30:25.732Z,5.55
2023-02-24T11:33:09.352Z,3.67
2023-02-24T11:35:51.359Z,4.65
2023-02-24T11:38:38.695Z,8.43
2023-02-24T11:41:27.539Z,3.75
2023-02-24T11:44:06.334Z,7.55
2023-02-24T11:46:42.352Z,8.40
2023-02-24T11:49:36.369Z,6.78
2023-02-24T11:52:09.359Z,5.18
2023-02-24T11:54:45.124Z,9.95
2023-02-24T11:57:21.345Z,7.00
2023-02-24T12:00:20.210Z,4.35
2023-02-24T12:02:55.032Z,12.20
2023-02-24T12:05:30.543Z,5.43
2023-02-24T12:08:10.073Z,6.73
2023-02-24T12:10:54.340Z,5.82
2023-02-24T12:13:38.550Z,3.13
2023-02-24T12:16:33.273Z,5.70
2023-02-24T12:19:29.149Z,7.00
2023-02-24T12:22:09.906Z,11.45
2023-02-24T12:24:37.125Z,4.65
2023-02-24T12:28:02.057Z,6.20
2023-02-24T12:31:14.521Z,8.10
2023-02-24T12:34:12.117Z,5.57
2023-02-24T12:36:59.548Z,8.15
2023-02-24T12:40:25.291Z,3.72
2023-02-24T12:43:23.770Z,10.60
2023-02-24T12:45:58.423Z,5.25
2023-02-24T12:48:47.696Z,2.80
2023-02-24T12:51:34.497Z,5.03
2023-02-24T12:54:23.465Z,6.95
2023-02-24T12:57:41.521Z,7.60
2023-02-24T13:00:35.645Z,4.75
2023-02-24T13:03:39.274Z,6.82
2023-02-24T13:06:17.109Z,3.65
2023-02-24T13:08:56.826Z,6.47
2023-02-24T13:11:51.618Z,3.90
2023-02-24T13:14:34.918Z,4.82
2023-02-24T13:17:20.210Z,4.85
2023-02-24T13:19:49.424Z,5.90
2023-02-24T13:22:17.897Z,8.85
2023-02-24T13:25:07.759Z,6.70
2023-02-24T13:27:39.042Z,8.23
2023-02-24T13:30:12.207Z,2.83
2023-02-24T13:32:44.590Z,9.32
2023-02-24T13:35:17.988Z,5.18
2023-02-24T13:37:47.355Z,4.25
2023-02-24T13:40:23.288Z,6.35
2023-02-24T13:42:57.657Z,6.07
2023-02-24T13:45:32.248Z,5.05
2023-02-24T13:48:53.511Z,6.88
2023-02-24T13:51:53.140Z,4.97
2023-02-24T13:54:38.491Z,3.72
2023-02-24T13:58:01.754Z,6.18
2023-02-24T14:00:42.794Z,1.95
2023-02-24T14:03:12.880Z,2.80
2023-02-24T14:05:43.188Z,3.72
2023-02-24T14:08:40.560Z,3.05
2023-02-24T14:13:37.780Z,3.92
2023-02-24T14:16:11.833Z,5.95
2023-02-24T14:18:40.234Z,7.43
2023-02-24T14:21:20.973Z,2.38
2023-02-24T14:24:05.143Z,5.40
2023-02-24T14:26:43.273Z,5.45
2023-02-24T14:29:10.841Z,3.97
2023-02-24T14:31:38.133Z,7.15
2023-02-24T14:34:09.170Z,3.20
2023-02-24T14:36:42.632Z,3.78
2023-02-24T14:39:31.732Z,4.47
2023-02-24T14:42:13.370Z,7.05
2023-02-24T14:44:47.332Z,4.70
2023-02-24T14:47:16.338Z,6.60
2023-02-24T14:50:01.975Z,5.93
2023-02-24T14:52:40.693Z,9.57
2023-02-24T14:55:19.167Z,5.28
2023-02-24T14:58:33.682Z,3.17
2023-02-24T15:01:06.405Z,6.75
2023-02-24T15:03:45.679Z,5.00
2023-02-24T15:06:23.120Z,5.57
2023-02-24T15:09:00.669Z,3.53
2023-02-24T15:11:30.568Z,4.82
2023-02-24T15:14:06.220Z,4.97
2023-02-24T15:16:44.162Z,6.78
2023-02-24T15:19:32.738Z,4.55
2023-02-24T15:21:59.748Z,8.75
2023-02-24T15:24:31.245Z,13.73
2023-02-24T15:27:20.627Z,3.92
2023-02-24T15:30:08.971Z,5.00
2023-02-24T15:32:38.064Z,5.00
2023-02-24T15:35:07.634Z,5.55
2023-02-24T15:37:44.770Z,3.70
2023-02-24T15:40:22.437Z,5.72
2023-02-24T15:43:09.935Z,5.40
2023-02-24T15:45:39.650Z,4.72
2023-02-24T15:48:28.761Z,2.78
2023-02-24T15:51:02.884Z,3.03
2023-02-24T15:53:29.876Z,3.60
2023-02-24T15:55:56.834Z,2.55
2023-02-24T15:58:25.347Z,2.33
2023-02-24T16:00:54.437Z,2.15
2023-02-24T16:03:21.503Z,4.53
2023-02-24T16:05:48.468Z,2.75
2023-02-24T16:08:19.343Z,4.53
2023-02-24T16:10:46.656Z,2.50
2023-02-24T16:13:21.882Z,2.70
2023-02-24T16:15:50.618Z,4.15
2023-02-24T16:18:22.743Z,3.03
2023-02-24T16:20:55.109Z,4.85
2023-02-24T16:23:26.218Z,3.33
2023-02-24T16:25:59.489Z,3.75
2023-02-24T16:28:26.649Z,2.83
2023-02-24T16:30:53.922Z,3.50
2023-02-24T16:33:23.640Z,5.40
2023-02-24T16:35:54.855Z,4.18
2023-02-24T16:38:26.703Z,4.90
2023-02-24T16:40:54.607Z,4.85
2023-02-24T16:43:21.703Z,3.50
2023-02-24T16:45:48.957Z,4.88
2023-02-24T16:48:23.398Z,5.15
2023-02-24T16:50:50.676Z,4.13
2023-02-24T16:53:22.588Z,4.40
2023-02-24T16:55:50.452Z,6.28
2023-02-24T16:58:19.073Z,6.60
2023-02-24T17:00:49.987Z,6.05
2023-02-24T17:03:22.829Z,7.63
2023-02-24T17:05:51.098Z,6.93
2023-02-24T17:08:19.441Z,9.60
2023-02-24T17:10:47.570Z,6.65
2023-02-24T17:13:18.250Z,8.20
2023-02-24T17:15:45.809Z,7.13
2023-02-24T17:18:12.785Z,9.38
2023-02-24T17:20:42.003Z,7.53
2023-02-24T17:23:11.502Z,6.57
2023-02-24T17:26:03.382Z,6.53
2023-02-24T17:28:30.478Z,10.23
2023-02-24T17:30:57.710Z,7.80
2023-02-24T17:33:24.784Z,7.55
2023-02-24T17:35:51.674Z,9.40
2023-02-24T17:38:23.135Z,9.63
2023-02-24T17:40:50.001Z,12.98
2023-02-24T17:43:16.996Z,11.07
2023-02-24T17:45:46.606Z,9.18
2023-02-24T17:48:15.236Z,10.73
2023-02-24T17:50:44.441Z,10.18
2023-02-24T17:53:11.794Z,10.02
2023-02-24T17:55:40.365Z,9.52
2023-02-24T17:58:10.253Z,10.88
2023-02-24T18:00:38.372Z,9.80
2023-02-24T18:03:05.422Z,11.25
2023-02-24T18:05:32.499Z,10.63
2023-02-24T18:07:59.806Z,12.00
2023-02-24T18:10:27.366Z,13.75
2023-02-24T18:12:54.572Z,14.52
2023-02-24T18:15:22.071Z,14.07
2023-02-24T18:17:49.009Z,13.27
2023-02-24T18:20:16.073Z,13.75
2023-02-24T18:22:43.028Z,14.57
2023-02-24T18:25:10.337Z,12.63
2023-02-24T18:27:37.415Z,13.82
2023-02-24T18:30:06.730Z,13.32
2023-02-24T18:32:34.506Z,14.23
2023-02-24T18:35:01.797Z,13.13
2023-02-24T18:37:28.814Z,14.35
2023-02-24T18:39:55.955Z,14.73
2023-02-24T18:42:23.022Z,17.50
2023-02-24T18:44:49.891Z,15.30
2023-02-24T18:47:16.783Z,14.75
2023-02-24T18:49:43.839Z,20.05
2023-02-24T18:52:11.702Z,15.07
2023-02-24T18:54:39.150Z,16.45
2023-02-24T18:57:06.013Z,15.07
2023-02-24T18:59:33.180Z,15.30
2023-02-24T19:02:00.214Z,18.80
2023-02-24T19:04:27.201Z,17.55
2023-02-24T19:06:54.356Z,14.40
2023-02-24T19:09:22.291Z,15.85
2023-02-24T19:11:50.350Z,15.55
2023-02-24T19:14:17.695Z,17.23
2023-02-24T19:16:45.228Z,13.90
2023-02-24T19:19:16.654Z,17.42
2023-02-24T19:21:45.403Z,16.80
2023-02-24T19:24:13.849Z,17.60
2023-02-24T19:26:42.528Z,17.23
2023-02-24T19:29:10.598Z,16.45
2023-02-24T19:31:39.392Z,16.85
2023-02-24T19:34:15.565Z,19.55
2023-02-24T19:36:42.578Z,18.90
2023-02-24T19:39:13.915Z,15.57
2023-02-24T19:41:41.297Z,19.13
2023-02-24T19:44:08.355Z,18.88
2023-02-24T19:46:36.200Z,21.75
2023-02-24T19:49:04.036Z,17.83
2023-02-24T19:51:31.665Z,17.30
2023-02-24T19:54:02.638Z,16.15
2023-02-24T19:56:32.210Z,16.00
2023-02-24T19:59:01.081Z,17.40
2023-02-24T20:01:29.544Z,19.88
2023-02-24T20:03:59.785Z,19.70
2023-02-24T20:06:35.847Z,22.42
2023-02-24T20:09:10.605Z,20.65
2023-02-24T20:11:39.588Z,17.17
2023-02-24T20:14:08.945Z,18.35
2023-02-24T20:16:38.759Z,17.00
2023-02-24T20:19:07.576Z,17.05
2023-02-24T20:21:34.870Z,17.60
2023-02-24T20:24:04.943Z,15.32
2023-02-24T20:26:32.694Z,18.40
2023-02-24T20:29:01.686Z,18.20
2023-02-24T20:31:28.885Z,16.85
2023-02-24T20:33:56.401Z,21.38
2023-02-24T20:36:26.618Z,16.63
2023-02-24T20:38:55.055Z,20.05
2023-02-24T20:41:22.593Z,18.00
2023-02-24T20:43:49.834Z,17.98
2023-02-24T20:46:25.825Z,18.48
2023-02-24T20:51:24.178Z,18.13
2023-02-24T20:53:57.737Z,17.10
2023-02-24T20:56:28.862Z,19.38
2023-02-24T20:59:03.143Z,18.77
2023-02-24T21:01:31.205Z,22.08
2023-02-24T21:03:58.726Z,22.13
2023-02-24T21:06:26.623Z,20.17
2023-02-24T21:08:53.987Z,21.25
2023-02-24T21:11:21.477Z,22.00
2023-02-24T21:13:50.380Z,21.42
2023-02-24T21:16:19.905Z,21.80
2023-02-24T21:18:48.916Z,19.13
2023-02-24T21:21:17.450Z,19.27
2023-02-24T21:23:44.462Z,17.17
2023-02-24T21:26:12.356Z,22.30
2023-02-24T21:28:40.537Z,18.63
2023-02-24T21:31:10.639Z,21.90
2023-02-24T21:33:39.382Z,24.02
2023-02-24T21:36:10.578Z,21.20
2023-02-24T21:38:38.099Z,21.50
2023-02-24T21:41:08.736Z,24.02
2023-02-24T21:43:37.850Z,20.95
2023-02-24T21:46:07.133Z,22.77
2023-02-24T21:48:35.326Z,21.58
2023-02-24T21:51:05.510Z,20.90
2023-02-24T21:53:35.427Z,21.77
2023-02-24T21:56:17.456Z,21.02
2023-02-24T21:59:04.885Z,20.23
2023-02-24T22:01:38.969Z,20.20
2023-02-24T22:04:10.583Z,18.55
2023-02-24T22:06:39.792Z,24.38
2023-02-24T22:09:09.919Z,19.88
2023-02-24T22:11:40.915Z,18.30
2023-02-24T22:14:10.535Z,21.42
2023-02-24T22:16:37.814Z,22.98
2023-02-24T22:19:05.419Z,21.13
2023-02-24T22:21:33.472Z,22.67
2023-02-24T22:24:03.087Z,17.75
2023-02-24T22:26:32.040Z,20.98
2023-02-24T22:29:00.305Z,18.73
2023-02-24T22:31:31.002Z,19.15
2023-02-24T22:33:58.807Z,18.20
2023-02-24T22:36:29.523Z,17.80
2023-02-24T22:38:58.510Z,21.50
2023-02-24T22:41:30.959Z,18.33
2023-02-24T22:43:59.314Z,16.20
2023-02-24T22:46:30.733Z,17.98
2023-02-24T22:48:58.018Z,14.52
2023-02-24T22:51:26.382Z,15.43
2023-02-24T22:53:54.299Z,14.23
2023-02-24T22:56:26.192Z,17.58
2023-02-24T22:58:53.677Z,23.23
2023-02-24T23:01:30.757Z,12.68
2023-02-24T23:04:02.843Z,13.68
2023-02-24T23:06:30.478Z,14.70
2023-02-24T23:09:00.004Z,19.80
2023-02-24T23:11:30.939Z,16.52
2023-02-24T23:14:03.356Z,14.80
2023-02-24T23:16:33.317Z,14.82
2023-02-24T23:19:06.097Z,15.95
2023-02-24T23:21:43.259Z,13.90
2023-02-24T23:24:12.521Z,15.68
2023-02-24T23:26:44.702Z,10.23
2023-02-24T23:29:15.151Z,13.75
2023-02-24T23:31:43.255Z,13.18
2023-02-24T23:34:11.156Z,13.75
2023-02-24T23:36:41.754Z,11.95
2023-02-24T23:39:10.049Z,17.67
2023-02-24T23:41:38.636Z,15.13
2023-02-24T23:44:06.360Z,10.95
2023-02-24T23:46:35.297Z,13.77
2023-02-24T23:49:02.988Z,13.75
2023-02-24T23:51:45.795Z,12.93
2023-02-24T23:54:16.951Z,15.02
2023-02-24T23:56:44.227Z,10.93
2023-02-24T23:59:11.842Z,18.83
